Time;durP1;ratioP1;P1;durP2;ratioP2;P2;SDS_P1;SDS_P2;PMS_P1;PMS_P2;Temp;Humidity;BMP_temperature;BMP_pressure;BME280_temperature;BME280_humidity;BME280_pressure;Samples;Min_cycle;Max_cycle;Signal;HPM_P1;HPM_P2
2022/03/24 00:01:14;;;;;;;9.07;7.30;;;;;;;3.11;100.00;97314.41;5048850;27;101881;-58
2022/03/24 00:03:41;;;;;;;8.63;7.00;;;;;;;2.96;100.00;97321.47;5048921;27;105522;-58
2022/03/24 00:06:09;;;;;;;8.40;7.00;;;;;;;3.08;100.00;97316.59;5051340;27;101867;-59
2022/03/24 00:08:35;;;;;;;10.50;6.93;;;;;;;3.05;100.00;97314.31;5050155;27;102547;-58
2022/03/24 00:11:03;;;;;;;10.50;7.43;;;;;;;3.15;100.00;97306.97;5048302;27;104898;-59
2022/03/24 00:13:29;;;;;;;7.97;7.17;;;;;;;2.83;100.00;97312.56;5049142;27;101925;-59
2022/03/24 00:15:57;;;;;;;7.90;6.63;;;;;;;2.58;100.00;97311.19;5048803;27;104333;-59
2022/03/24 00:18:29;;;;;;;7.13;6.43;;;;;;;2.70;100.00;97307.97;5048023;27;105807;-58
2022/03/24 00:20:56;;;;;;;8.27;7.03;;;;;;;2.76;100.00;97311.66;5050196;27;102030;-58
2022/03/24 00:23:23;;;;;;;11.53;7.17;;;;;;;2.56;100.00;97313.19;5048766;27;104919;-58
2022/03/24 00:25:51;;;;;;;10.47;7.13;;;;;;;2.64;100.00;97307.84;5051443;27;106062;-58
2022/03/24 00:28:18;;;;;;;7.93;6.90;;;;;;;2.78;100.00;97307.06;5048521;27;105448;-58
2022/03/24 00:30:45;;;;;;;7.03;6.33;;;;;;;2.32;100.00;97318.63;5047900;27;105335;-58
2022/03/24 00:33:12;;;;;;;8.67;5.80;;;;;;;2.43;100.00;97315.59;5048444;27;101946;-58
2022/03/24 00:35:41;;;;;;;7.83;6.37;;;;;;;2.36;100.00;97309.41;5048343;27;105333;-58
2022/03/24 00:38:08;;;;;;;8.40;6.67;;;;;;;2.24;100.00;97310.84;5047911;27;105209;-58
2022/03/24 00:40:35;;;;;;;7.90;6.40;;;;;;;2.25;100.00;97312.47;5048604;27;102086;-58
2022/03/24 00:43:02;;;;;;;7.57;6.77;;;;;;;2.24;100.00;97311.63;5048560;27;105353;-58
2022/03/24 00:45:29;;;;;;;8.80;7.07;;;;;;;2.11;100.00;97310.59;5049982;27;105763;-57
2022/03/24 00:47:56;;;;;;;10.47;6.77;;;;;;;1.85;100.00;97313.56;5055161;27;101826;-59
2022/03/24 00:50:23;;;;;;;7.70;6.03;;;;;;;1.73;100.00;97309.72;5051354;27;104937;-58
2022/03/24 00:52:52;;;;;;;7.60;6.80;;;;;;;1.80;100.00;97309.84;5051809;27;101844;-58
2022/03/24 00:55:20;;;;;;;7.77;6.80;;;;;;;1.78;100.00;97309.19;5051100;27;104906;-58
2022/03/24 00:57:49;;;;;;;7.03;6.10;;;;;;;1.86;100.00;97312.56;5051212;27;105448;-59
2022/03/24 01:00:20;;;;;;;8.33;6.97;;;;;;;1.84;100.00;97305.88;5051187;27;101925;-58
2022/03/24 01:02:49;;;;;;;9.43;7.03;;;;;;;1.94;100.00;97298.59;5051850;27;105487;-58
2022/03/24 01:05:17;;;;;;;7.73;6.47;;;;;;;2.05;100.00;97300.81;5051071;27;104001;-57
2022/03/24 01:07:45;;;;;;;8.20;7.23;;;;;;;1.79;100.00;97300.31;5052867;27;101859;-58
2022/03/24 01:10:16;;;;;;;8.33;6.53;;;;;;;1.56;100.00;97302.94;5054436;27;104896;-59
2022/03/24 01:12:45;;;;;;;7.70;6.00;;;;;;;1.33;100.00;97294.22;5051238;27;101863;-58
2022/03/24 01:15:14;;;;;;;6.53;5.83;;;;;;;1.27;100.00;97294.06;5051300;27;105106;-56
2022/03/24 01:17:42;;;;;;;8.30;6.63;;;;;;;1.24;100.00;97297.84;5050973;27;104194;-58
2022/03/24 01:20:11;;;;;;;9.33;6.40;;;;;;;1.40;100.00;97299.56;5051582;27;101860;-58
2022/03/24 01:22:38;;;;;;;9.13;6.90;;;;;;;1.34;100.00;97297.63;5051449;27;104797;-58
2022/03/24 01:25:08;;;;;;;7.27;6.50;;;;;;;1.36;100.00;97287.78;5050533;27;105003;-57
2022/03/24 01:27:38;;;;;;;7.63;6.33;;;;;;;1.28;100.00;97288.66;5051165;27;101916;-58
2022/03/24 01:30:09;;;;;;;7.97;6.70;;;;;;;1.40;100.00;97289.91;5051271;27;104104;-58
2022/03/24 01:32:38;;;;;;;8.83;7.10;;;;;;;1.36;100.00;97282.53;5054177;27;105637;-58
2022/03/24 01:35:07;;;;;;;8.80;7.00;;;;;;;1.26;100.00;97282.78;5051242;27;105921;-59
2022/03/24 01:37:36;;;;;;;10.93;7.83;;;;;;;1.35;100.00;97275.69;5051657;27;102453;-58
2022/03/24 01:40:06;;;;;;;8.93;6.93;;;;;;;1.42;100.00;97276.66;5052546;27;101893;-58
2022/03/24 01:42:35;;;;;;;11.10;7.73;;;;;;;1.41;100.00;97275.00;5052490;27;103046;-58
2022/03/24 01:45:06;;;;;;;9.50;7.67;;;;;;;1.50;100.00;97276.59;5051683;27;103060;-58
2022/03/24 01:47:34;;;;;;;12.33;8.53;;;;;;;1.43;100.00;97281.69;5050910;27;101859;-59
2022/03/24 01:50:02;;;;;;;8.33;7.10;;;;;;;1.53;100.00;97268.41;5052254;27;102771;-58
2022/03/24 01:52:30;;;;;;;11.23;8.17;;;;;;;1.62;100.00;97262.09;5050223;27;105479;-58
2022/03/24 01:55:00;;;;;;;10.20;7.70;;;;;;;1.67;100.00;97265.00;5053391;27;101872;-58
2022/03/24 01:57:29;;;;;;;9.13;7.53;;;;;;;1.66;100.00;97269.47;5050173;27;105104;-58
2022/03/24 01:59:58;;;;;;;9.87;7.23;;;;;;;1.34;100.00;97263.56;5050713;27;101763;-58
2022/03/24 02:02:27;;;;;;;11.23;8.07;;;;;;;1.31;100.00;97263.94;5050500;27;105480;-58
2022/03/24 02:04:55;;;;;;;9.03;7.20;;;;;;;1.43;100.00;97263.34;5050002;27;105113;-58
2022/03/24 02:07:32;;;;;;;9.50;7.70;;;;;;;1.42;100.00;97260.94;5050729;27;101838;-59
2022/03/24 02:09:59;;;;;;;10.20;7.90;;;;;;;1.19;100.00;97262.66;5050556;27;104663;-59
2022/03/24 02:12:27;;;;;;;9.57;7.30;;;;;;;1.09;100.00;97262.06;5050092;27;105214;-58
2022/03/24 02:14:59;;;;;;;9.83;7.23;;;;;;;1.03;100.00;97262.72;5053845;27;102086;-58
2022/03/24 02:17:30;;;;;;;9.57;7.23;;;;;;;0.79;100.00;97263.66;5033597;27;104195;-58
2022/03/24 02:19:59;;;;;;;10.23;7.30;;;;;;;0.99;100.00;97264.88;5050743;27;101712;-58
2022/03/24 02:22:29;;;;;;;9.23;7.40;;;;;;;0.85;100.00;97262.16;5050301;27;105853;-57
2022/03/24 02:24:56;;;;;;;10.80;7.60;;;;;;;0.82;100.00;97265.13;5051377;27;102420;-58
2022/03/24 02:27:24;;;;;;;8.80;7.47;;;;;;;0.84;100.00;97263.16;5051639;27;101908;-58
2022/03/24 02:29:53;;;;;;;11.03;7.80;;;;;;;0.72;100.00;97256.66;5051451;27;102379;-58
2022/03/24 02:32:22;;;;;;;9.47;7.07;;;;;;;0.77;100.00;97263.00;5049817;27;104081;-58
2022/03/24 02:34:50;;;;;;;11.13;7.53;;;;;;;0.85;100.00;97256.91;5051544;27;101843;-58
2022/03/24 02:37:19;;;;;;;7.97;6.80;;;;;;;0.86;100.00;97253.31;5054454;27;102914;-58
2022/03/24 02:39:50;;;;;;;8.97;7.30;;;;;;;0.99;100.00;97253.59;5051329;27;101862;-58
2022/03/24 02:42:20;;;;;;;9.23;7.33;;;;;;;0.83;100.00;97251.03;5051742;27;102930;-58
2022/03/24 02:44:49;;;;;;;9.37;7.13;;;;;;;0.87;100.00;97257.56;5051086;27;102912;-58
2022/03/24 02:47:17;;;;;;;9.77;7.03;;;;;;;0.79;100.00;97253.19;5051655;27;101741;-59
2022/03/24 02:49:47;;;;;;;8.90;6.97;;;;;;;0.68;100.00;97252.72;5050030;27;105566;-58
2022/03/24 02:52:15;;;;;;;12.30;6.77;;;;;;;0.62;100.00;97263.88;5051062;27;102619;-59
2022/03/24 02:54:42;;;;;;;8.90;7.13;;;;;;;0.48;100.00;97267.16;5050854;27;101941;-58
2022/03/24 02:57:12;;;;;;;7.03;6.10;;;;;;;0.67;100.00;97257.13;5051315;27;102962;-58
2022/03/24 02:59:40;;;;;;;8.53;6.73;;;;;;;0.83;100.00;97261.50;5053689;27;103011;-58
2022/03/24 03:02:08;;;;;;;10.67;7.00;;;;;;;0.75;100.00;97254.50;5051352;27;102047;-57
2022/03/24 03:04:36;;;;;;;9.30;7.10;;;;;;;0.72;100.00;97259.25;5050106;27;101716;-58
2022/03/24 03:07:05;;;;;;;8.60;6.60;;;;;;;0.55;100.00;97261.09;5050269;27;101823;-57
2022/03/24 03:09:33;;;;;;;9.03;6.70;;;;;;;0.53;100.00;97259.63;5050947;27;102350;-59
2022/03/24 03:12:00;;;;;;;8.73;6.93;;;;;;;0.63;100.00;97268.94;5050499;27;102616;-58
2022/03/24 03:14:30;;;;;;;8.97;6.60;;;;;;;0.48;100.00;97265.38;5050876;27;101851;-58
2022/03/24 03:16:58;;;;;;;9.60;7.43;;;;;;;0.44;100.00;97264.06;5051262;27;102801;-58
2022/03/24 03:19:25;;;;;;;9.77;6.70;;;;;;;0.45;100.00;97263.06;5050318;27;103104;-58
2022/03/24 03:21:52;;;;;;;9.53;7.60;;;;;;;0.48;100.00;97267.16;5054358;27;101861;-58
2022/03/24 03:24:21;;;;;;;8.63;7.10;;;;;;;0.47;100.00;97257.69;5050293;27;102531;-58
2022/03/24 03:26:49;;;;;;;8.50;7.13;;;;;;;0.63;100.00;97255.03;5050652;27;101883;-58
2022/03/24 03:29:17;;;;;;;9.10;7.03;;;;;;;0.74;100.00;97259.91;5050744;27;104526;-58
2022/03/24 03:31:47;;;;;;;8.13;6.73;;;;;;;0.83;100.00;97258.91;5049969;27;102545;-59
2022/03/24 03:34:14;;;;;;;8.10;6.20;;;;;;;0.73;100.00;97264.31;5050758;27;101659;-56
2022/03/24 03:36:42;;;;;;;7.37;6.57;;;;;;;0.55;100.00;97265.53;5049385;27;103496;-58
2022/03/24 03:39:10;;;;;;;7.53;6.73;;;;;;;0.34;100.00;97265.22;5048661;27;105315;-58
2022/03/24 03:41:39;;;;;;;8.13;6.43;;;;;;;0.20;100.00;97271.13;5049258;27;101871;-58
2022/03/24 03:44:07;;;;;;;9.27;6.63;;;;;;;0.36;100.00;97271.94;5052125;27;105487;-58
2022/03/24 03:46:34;;;;;;;6.53;5.63;;;;;;;0.40;100.00;97267.19;5049256;27;101857;-58
2022/03/24 03:49:04;;;;;;;8.13;6.70;;;;;;;0.29;100.00;97272.75;5048911;27;105335;-59
2022/03/24 03:51:31;;;;;;;11.20;7.20;;;;;;;0.28;100.00;97277.16;5048334;27;105427;-57
2022/03/24 03:53:59;;;;;;;8.67;7.23;;;;;;;0.28;100.00;97269.31;5049299;27;101956;-58
2022/03/24 03:56:26;;;;;;;7.60;6.67;;;;;;;0.24;100.00;97268.00;5048556;27;105721;-58
2022/03/24 03:58:53;;;;;;;10.83;6.77;;;;;;;0.28;100.00;97273.75;5048460;27;105045;-58
2022/03/24 04:01:20;;;;;;;9.97;6.70;;;;;;;0.35;100.00;97277.31;5050040;27;101814;-59
2022/03/24 04:03:48;;;;;;;8.40;6.50;;;;;;;0.53;100.00;97273.53;5049050;27;104866;-58
2022/03/24 04:06:16;;;;;;;7.17;5.90;;;;;;;0.56;100.00;97262.72;5051826;27;105412;-57
2022/03/24 04:08:45;;;;;;;8.27;6.50;;;;;;;0.41;100.00;97268.81;5048978;27;105218;-58
2022/03/24 04:11:14;;;;;;;10.20;6.70;;;;;;;0.44;100.00;97269.28;5049449;27;103047;-58
2022/03/24 04:13:42;;;;;;;8.67;6.30;;;;;;;0.37;100.00;97267.50;5048871;27;101801;-58
2022/03/24 04:16:12;;;;;;;7.83;7.00;;;;;;;0.43;100.00;97266.84;5048765;27;105563;-59
2022/03/24 04:18:40;;;;;;;8.40;7.10;;;;;;;0.32;100.00;97261.94;5049214;27;103931;-56
2022/03/24 04:21:07;;;;;;;7.80;6.60;;;;;;;0.32;100.00;97269.78;5053794;27;101816;-58
2022/03/24 04:23:37;;;;;;;8.23;5.73;;;;;;;0.32;100.00;97264.56;5052293;27;104037;-58
2022/03/24 04:26:04;;;;;;;8.30;6.80;;;;;;;0.46;100.00;97271.75;5054845;27;105753;-58
2022/03/24 04:28:32;;;;;;;10.33;6.80;;;;;;;0.51;100.00;97266.84;5052469;27;105643;-56
2022/03/24 04:31:00;;;;;;;9.60;6.90;;;;;;;0.49;100.00;97263.53;5051481;27;105105;-59
2022/03/24 04:33:27;;;;;;;7.67;6.00;;;;;;;0.48;100.00;97262.75;5052208;27;101863;-58
2022/03/24 04:35:54;;;;;;;9.17;7.13;;;;;;;0.47;100.00;97263.75;5051925;27;104044;-58
2022/03/24 04:38:21;;;;;;;9.03;6.70;;;;;;;0.44;100.00;97266.69;5051578;27;103830;-58
2022/03/24 04:40:50;;;;;;;9.90;7.27;;;;;;;0.39;100.00;97268.97;5051931;27;101935;-58
2022/03/24 04:43:17;;;;;;;10.40;6.43;;;;;;;0.32;100.00;97269.78;5051998;27;105241;-58
2022/03/24 04:45:44;;;;;;;8.23;6.33;;;;;;;0.24;100.00;97277.66;5051239;27;104217;-58
2022/03/24 04:48:11;;;;;;;7.77;6.93;;;;;;;0.16;100.00;97282.88;5055307;27;102195;-58
2022/03/24 04:50:39;;;;;;;9.27;6.77;;;;;;;0.10;100.00;97278.31;5052553;27;103206;-57
2022/03/24 04:53:06;;;;;;;9.30;7.13;;;;;;;0.08;100.00;97277.66;5051623;27;101943;-58
2022/03/24 04:55:33;;;;;;;13.97;6.87;;;;;;;0.06;100.00;97277.03;5051447;27;105462;-58
2022/03/24 04:58:03;;;;;;;7.73;6.40;;;;;;;0.23;100.00;97283.88;5051131;27;105655;-58
2022/03/24 05:00:30;;;;;;;9.27;6.47;;;;;;;0.17;100.00;97279.31;5051535;27;101901;-58
2022/03/24 05:02:57;;;;;;;9.53;6.50;;;;;;;-0.02;100.00;97277.84;5053327;27;102925;-58
2022/03/24 05:05:24;;;;;;;11.67;7.80;;;;;;;-0.21;100.00;97277.34;5050864;27;105501;-58
2022/03/24 05:07:51;;;;;;;10.90;7.47;;;;;;;-0.11;100.00;97280.59;5051494;27;102237;-57
2022/03/24 05:10:18;;;;;;;10.53;7.03;;;;;;;-0.02;100.00;97284.84;5054026;27;104890;-58
2022/03/24 05:12:46;;;;;;;10.40;7.20;;;;;;;-0.22;100.00;97283.53;5051332;27;101884;-58
2022/03/24 05:15:14;;;;;;;11.23;7.43;;;;;;;-0.22;100.00;97287.94;5051393;27;105829;-58
2022/03/24 05:17:41;;;;;;;9.77;7.57;;;;;;;-0.21;100.00;97287.81;5050707;27;105895;-59
2022/03/24 05:20:09;;;;;;;7.93;6.63;;;;;;;-0.21;100.00;97288.59;5051376;27;101891;-59
2022/03/24 05:22:37;;;;;;;8.07;6.57;;;;;;;-0.09;100.00;97297.75;5048028;27;102533;-57
2022/03/24 05:25:05;;;;;;;9.93;7.60;;;;;;;0.15;100.00;97300.38;5052144;27;103235;-58
2022/03/24 05:27:32;;;;;;;11.80;7.30;;;;;;;0.27;100.00;97300.84;5052771;27;101779;-58
2022/03/24 05:30:00;;;;;;;8.77;7.13;;;;;;;0.31;100.00;97296.94;5051620;27;102912;-58
2022/03/24 05:32:28;;;;;;;9.83;7.70;;;;;;;0.50;100.00;97299.22;5053678;27;105298;-59
2022/03/24 05:34:55;;;;;;;8.50;6.33;;;;;;;0.52;100.00;97302.47;5052282;27;102415;-58
2022/03/24 05:37:23;;;;;;;8.03;6.53;;;;;;;0.53;100.00;97310.16;5050137;27;103942;-59
2022/03/24 05:39:50;;;;;;;9.40;6.53;;;;;;;0.44;100.00;97302.50;5051185;27;101950;-57
2022/03/24 05:42:17;;;;;;;9.33;6.53;;;;;;;0.60;100.00;97302.47;5051105;27;104865;-59
2022/03/24 05:44:44;;;;;;;8.13;6.97;;;;;;;0.78;100.00;97303.88;5050443;27;105475;-58
2022/03/24 05:47:11;;;;;;;9.30;7.97;;;;;;;0.99;100.00;97305.97;5051071;27;101786;-59
2022/03/24 05:49:40;;;;;;;10.90;8.53;;;;;;;0.98;100.00;97310.38;5050591;27;105569;-58
2022/03/24 05:52:39;;;;;;;11.50;8.40;;;;;;;1.17;100.00;97309.19;5050300;27;105091;-57
2022/03/24 05:55:07;;;;;;;10.60;8.43;;;;;;;1.29;100.00;97308.63;5053778;27;102045;-59
2022/03/24 05:57:33;;;;;;;10.67;8.00;;;;;;;1.36;100.00;97309.59;5049979;27;105532;-58
2022/03/24 06:00:01;;;;;;;10.03;7.80;;;;;;;1.54;100.00;97311.97;5051848;27;101884;-57
2022/03/24 06:02:28;;;;;;;10.30;7.93;;;;;;;1.57;100.00;97315.06;5050738;27;105144;-58
2022/03/24 06:04:59;;;;;;;9.00;7.33;;;;;;;1.57;100.00;97303.75;5049905;27;104171;-59
2022/03/24 06:07:26;;;;;;;11.83;7.73;;;;;;;1.84;100.00;97308.50;5050477;27;101856;-59
2022/03/24 06:09:53;;;;;;;11.70;7.47;;;;;;;2.08;100.00;97308.34;5050627;27;105522;-58
2022/03/24 06:12:21;;;;;;;10.20;6.80;;;;;;;2.15;100.00;97314.50;5049871;27;103727;-58
2022/03/24 06:14:49;;;;;;;10.77;7.60;;;;;;;2.44;100.00;97312.78;5050598;27;101933;-59
2022/03/24 06:17:18;;;;;;;11.63;8.00;;;;;;;2.56;100.00;97310.56;5054938;27;102816;-59
2022/03/24 06:19:47;;;;;;;14.50;7.83;;;;;;;2.80;100.00;97312.94;5050236;27;101882;-59
2022/03/24 06:22:16;;;;;;;8.93;7.50;;;;;;;2.97;100.00;97311.78;5050297;27;105068;-57
2022/03/24 06:24:43;;;;;;;12.03;7.73;;;;;;;2.92;100.00;97308.88;5049803;27;105218;-59
2022/03/24 06:27:10;;;;;;;9.47;7.43;;;;;;;2.94;100.00;97314.75;5050402;27;101888;-58
2022/03/24 06:29:37;;;;;;;9.47;7.83;;;;;;;3.09;100.00;97319.03;5050378;27;105057;-58
2022/03/24 06:32:05;;;;;;;11.97;7.33;;;;;;;3.32;100.00;97321.53;5049387;27;105728;-59
2022/03/24 06:34:33;;;;;;;10.17;7.03;;;;;;;3.55;100.00;97315.19;5050147;27;102175;-57
2022/03/24 06:36:59;;;;;;;8.00;7.00;;;;;;;3.73;100.00;97325.31;5053125;27;105265;-59
2022/03/24 06:39:28;;;;;;;8.83;7.27;;;;;;;4.09;100.00;97326.13;5050154;27;102278;-59
2022/03/24 06:41:56;;;;;;;10.37;7.47;;;;;;;4.30;100.00;97321.66;5049860;27;105156;-59
2022/03/24 06:44:23;;;;;;;10.63;6.87;;;;;;;4.42;100.00;97320.16;5049659;27;105878;-58
2022/03/24 06:46:50;;;;;;;13.50;8.07;;;;;;;4.71;100.00;97320.00;5049924;27;101834;-58
2022/03/24 06:49:16;;;;;;;12.87;8.30;;;;;;;4.85;100.00;97331.47;5049936;27;105219;-57
2022/03/24 06:51:43;;;;;;;9.57;8.23;;;;;;;4.85;100.00;97326.19;5048927;27;105788;-58
2022/03/24 06:54:12;;;;;;;11.83;7.63;;;;;;;4.95;100.00;97321.38;5049782;27;101913;-58
2022/03/24 06:56:41;;;;;;;11.47;8.00;;;;;;;5.07;100.00;97322.47;5049481;27;105292;-58
2022/03/24 06:59:08;;;;;;;11.87;7.80;;;;;;;5.26;100.00;97324.41;5052700;27;105778;-58
2022/03/24 07:01:35;;;;;;;7.97;6.60;;;;;;;5.42;100.00;97324.09;5049403;27;105437;-58
2022/03/24 07:04:02;;;;;;;15.80;8.13;;;;;;;5.54;100.00;97328.63;5049212;27;105210;-58
2022/03/24 07:06:30;;;;;;;9.87;7.13;;;;;;;5.80;100.00;97320.03;5049768;27;101906;-58
2022/03/24 07:08:58;;;;;;;14.50;7.90;;;;;;;5.99;100.00;97321.91;5050983;27;102388;-57
2022/03/24 07:11:26;;;;;;;9.43;7.57;;;;;;;6.16;100.00;97325.84;5048932;27;105713;-58
2022/03/24 07:13:54;;;;;;;11.13;7.00;;;;;;;6.40;100.00;97319.97;5049813;27;101999;-57
2022/03/24 07:16:21;;;;;;;7.73;6.83;;;;;;;6.43;100.00;97319.59;5049551;27;105336;-57
2022/03/24 07:18:48;;;;;;;7.93;6.47;;;;;;;6.48;100.00;97319.75;5048917;27;105359;-58
2022/03/24 07:21:15;;;;;;;10.83;7.07;;;;;;;6.45;100.00;97317.53;5054080;27;101780;-58
2022/03/24 07:23:43;;;;;;;14.30;7.00;;;;;;;6.55;100.00;97315.31;5048822;27;106045;-58
2022/03/24 07:26:10;;;;;;;10.50;6.20;;;;;;;6.71;100.00;97315.72;5049259;27;101886;-59
2022/03/24 07:28:37;;;;;;;6.80;6.10;;;;;;;7.11;100.00;97313.84;5049396;27;105206;-59
2022/03/24 07:31:11;;;;;;;8.97;7.07;;;;;;;7.32;100.00;97316.25;5048850;27;105080;-59
2022/03/24 07:33:39;;;;;;;9.63;6.50;;;;;;;7.51;100.00;97318.03;5049639;27;101915;-59
2022/03/24 07:36:06;;;;;;;9.57;6.13;;;;;;;7.86;100.00;97316.69;5049665;27;105162;-59
2022/03/24 07:38:34;;;;;;;8.47;5.87;;;;;;;8.00;100.00;97320.88;5050401;27;102655;-59
2022/03/24 07:41:04;;;;;;;7.73;5.37;;;;;;;8.06;100.00;97320.84;5051801;27;101923;-59
2022/03/24 07:43:33;;;;;;;7.43;5.20;;;;;;;8.19;95.98;97320.78;5052694;27;103487;-59
2022/03/24 07:46:00;;;;;;;5.57;4.90;;;;;;;8.27;95.38;97323.22;5049286;27;101869;-59
2022/03/24 07:48:30;;;;;;;6.13;5.13;;;;;;;8.57;92.42;97318.91;5050255;27;103862;-59
2022/03/24 07:50:59;;;;;;;6.03;5.40;;;;;;;8.77;88.75;97318.81;5049290;27;105741;-59
2022/03/24 07:53:58;;;;;;;4.97;4.47;;;;;;;8.96;85.59;97325.78;5050241;27;101655;-59
2022/03/24 07:56:26;;;;;;;8.97;4.40;;;;;;;9.06;83.84;97331.41;5050489;27;105632;-59
2022/03/24 07:58:54;;;;;;;4.73;4.10;;;;;;;9.14;78.27;97323.97;5048989;27;102464;-59
2022/03/24 08:01:29;;;;;;;6.10;4.40;;;;;;;9.20;74.56;97328.41;5049442;27;102139;-60
2022/03/24 08:04:02;;;;;;;5.37;4.07;;;;;;;9.64;78.68;97327.31;5049109;27;105192;-60
2022/03/24 08:06:31;;;;;;;4.13;3.73;;;;;;;9.83;74.99;97326.28;5051842;27;106339;-60
2022/03/24 08:08:59;;;;;;;6.07;3.90;;;;;;;9.84;71.51;97317.28;5048867;27;105209;-60
2022/03/24 08:11:27;;;;;;;8.80;3.87;;;;;;;9.94;69.81;97317.56;5048207;27;105224;-60
2022/03/24 08:13:56;;;;;;;6.13;3.93;;;;;;;10.04;68.47;97313.38;5050691;27;102223;-60
2022/03/24 08:16:24;;;;;;;4.70;4.30;;;;;;;10.36;67.10;97314.78;5050828;27;102419;-59
2022/03/24 08:18:53;;;;;;;4.57;4.13;;;;;;;10.57;65.58;97313.47;5050259;27;102809;-60
2022/03/24 08:21:22;;;;;;;5.63;3.90;;;;;;;11.04;66.27;97317.81;5050502;27;101891;-60
2022/03/24 08:23:49;;;;;;;4.30;3.90;;;;;;;11.28;62.16;97314.13;5050396;27;103100;-60
2022/03/24 08:26:16;;;;;;;7.87;3.87;;;;;;;11.43;62.81;97309.13;5049213;27;102683;-59
2022/03/24 08:28:43;;;;;;;5.20;3.47;;;;;;;11.39;60.67;97308.78;5053464;27;101784;-60
2022/03/24 08:31:09;;;;;;;5.53;4.23;;;;;;;11.15;60.69;97311.69;5049301;27;102740;-60
2022/03/24 08:33:36;;;;;;;4.83;3.77;;;;;;;11.40;59.92;97306.94;5050237;27;101699;-60
2022/03/24 08:36:03;;;;;;;4.37;3.40;;;;;;;11.60;58.79;97312.72;5049874;27;102393;-60
2022/03/24 08:38:31;;;;;;;4.57;3.70;;;;;;;11.81;56.83;97312.09;5049245;27;102586;-60
2022/03/24 08:40:58;;;;;;;4.23;3.47;;;;;;;12.12;56.81;97314.34;5049949;27;101656;-60
2022/03/24 08:43:25;;;;;;;3.27;2.97;;;;;;;12.12;53.81;97309.00;5049923;27;102373;-60
2022/03/24 08:45:52;;;;;;;3.83;3.23;;;;;;;12.11;52.72;97310.06;5049037;27;103859;-60
2022/03/24 08:48:19;;;;;;;3.10;2.80;;;;;;;12.32;51.49;97310.19;5051893;27;102180;-60
2022/03/24 08:50:46;;;;;;;3.60;3.30;;;;;;;12.66;50.75;97311.06;5047558;27;105358;-60
2022/03/24 08:53:13;;;;;;;2.83;2.60;;;;;;;12.77;49.04;97307.53;5048346;27;101902;-59
2022/03/24 08:55:43;;;;;;;3.03;2.63;;;;;;;12.82;48.37;97304.94;5047407;27;104897;-59
2022/03/24 08:58:10;;;;;;;5.17;3.00;;;;;;;12.82;48.49;97304.94;5047571;27;105404;-60
2022/03/24 09:00:37;;;;;;;3.63;2.67;;;;;;;13.15;47.58;97299.63;5047905;27;102264;-60
2022/03/24 09:03:05;;;;;;;2.70;2.50;;;;;;;13.61;47.83;97304.56;5049642;27;102745;-60
2022/03/24 09:05:32;;;;;;;4.93;2.20;;;;;;;13.78;45.18;97302.66;5048244;27;105676;-60
2022/03/24 09:07:59;;;;;;;2.70;2.40;;;;;;;14.29;45.96;97303.03;5051638;27;102011;-60
2022/03/24 09:10:26;;;;;;;3.53;2.37;;;;;;;13.92;41.67;97294.03;5037788;27;105555;-60
2022/03/24 09:12:55;;;;;;;4.47;2.43;;;;;;;14.13;41.11;97289.72;5051429;27;101813;-60
2022/03/24 09:15:22;;;;;;;2.17;1.87;;;;;;;13.90;39.30;97292.66;5050804;27;105181;-60
2022/03/24 09:17:49;;;;;;;5.17;3.10;;;;;;;14.09;37.98;97296.63;5050986;27;105269;-60
2022/03/24 09:20:21;;;;;;;2.77;2.50;;;;;;;14.35;39.38;97290.53;5044956;27;101953;-60
2022/03/24 09:22:49;;;;;;;2.70;2.50;;;;;;;14.81;38.73;97289.88;5032432;28;102548;-60
2022/03/24 09:25:18;;;;;;;3.20;2.50;;;;;;;14.70;38.13;97288.19;5031750;28;102735;-60
2022/03/24 09:27:46;;;;;;;3.60;3.20;;;;;;;14.61;36.72;97287.84;5030438;28;101949;-60
2022/03/24 09:30:18;;;;;;;4.93;3.33;;;;;;;15.01;36.52;97284.72;5030984;28;105330;-60
2022/03/24 09:32:47;;;;;;;3.43;2.60;;;;;;;15.25;35.34;97285.94;5033753;27;103777;-60
2022/03/24 09:35:15;;;;;;;3.37;2.80;;;;;;;15.57;35.44;97292.09;5032166;27;102334;-60
2022/03/24 09:37:42;;;;;;;3.83;3.00;;;;;;;15.58;36.00;97285.69;5031686;27;102579;-60
2022/03/24 09:40:11;;;;;;;3.13;2.83;;;;;;;15.73;35.21;97283.88;5032244;28;101885;-60
2022/03/24 09:42:39;;;;;;;4.60;3.40;;;;;;;15.70;34.17;97278.22;5032050;27;102912;-60
2022/03/24 09:45:09;;;;;;;4.40;3.10;;;;;;;15.55;33.66;97276.28;5029998;28;105441;-60
2022/03/24 09:47:38;;;;;;;3.33;2.80;;;;;;;15.66;34.01;97282.50;5030621;28;101907;-60
2022/03/24 09:50:06;;;;;;;3.23;2.57;;;;;;;15.86;34.28;97280.69;5030702;28;105344;-60
2022/03/24 09:52:33;;;;;;;2.90;2.70;;;;;;;15.98;33.42;97275.13;5029753;28;105319;-60
2022/03/24 09:55:00;;;;;;;3.67;2.87;;;;;;;16.70;34.32;97270.50;5033372;28;102002;-60
2022/03/24 09:57:27;;;;;;;4.73;2.67;;;;;;;16.73;32.99;97273.44;5029854;28;103749;-60
2022/03/24 09:59:54;;;;;;;4.53;3.30;;;;;;;16.80;31.95;97275.88;5030405;28;101914;-60
2022/03/24 10:02:22;;;;;;;3.90;2.90;;;;;;;16.70;31.80;97278.56;5030423;28;105564;-60
2022/03/24 10:04:52;;;;;;;3.27;2.90;;;;;;;16.50;31.64;97267.78;5029844;28;104983;-60
2022/03/24 10:07:23;;;;;;;4.47;2.90;;;;;;;16.50;31.67;97267.78;5030237;28;101769;-60
2022/03/24 10:09:53;;;;;;;4.00;3.07;;;;;;;16.49;32.27;97271.53;5030390;28;105814;-60
2022/03/24 10:12:22;;;;;;;3.83;3.07;;;;;;;16.99;31.99;97267.00;5029671;28;106037;-60
2022/03/24 10:15:00;;;;;;;3.23;2.93;;;;;;;17.51;31.11;97266.72;5030348;28;101907;-60
2022/03/24 10:17:27;;;;;;;3.00;2.77;;;;;;;17.10;30.60;97267.81;5032513;27;105455;-59
2022/03/24 10:20:00;;;;;;;3.30;3.00;;;;;;;17.21;29.88;97261.34;5030212;28;102302;-60
2022/03/24 10:22:28;;;;;;;3.27;2.80;;;;;;;17.75;30.69;97263.16;5030184;28;105254;-60
2022/03/24 10:24:56;;;;;;;4.13;3.77;;;;;;;17.95;29.47;97254.19;5029306;28;106882;-60
2022/03/24 10:27:27;;;;;;;5.77;3.90;;;;;;;18.42;29.54;97254.53;5029990;28;101869;-60
2022/03/24 10:30:02;;;;;;;4.17;3.80;;;;;;;18.62;28.23;97251.69;5029689;28;104898;-59
2022/03/24 10:32:31;;;;;;;4.77;3.63;;;;;;;18.62;27.69;97255.19;5042112;27;102735;-60
2022/03/24 10:35:08;;;;;;;4.30;3.80;;;;;;;18.60;28.27;97248.47;5050377;27;101967;-60
2022/03/24 10:37:35;;;;;;;4.83;3.77;;;;;;;18.65;27.31;97249.22;5050368;27;103831;-60
2022/03/24 10:40:06;;;;;;;5.33;3.80;;;;;;;18.73;27.22;97251.34;5054511;27;101809;-59
2022/03/24 10:42:35;;;;;;;5.43;3.50;;;;;;;18.69;27.89;97250.28;5051740;27;101724;-59
2022/03/24 10:45:13;;;;;;;5.63;3.57;;;;;;;18.29;28.63;97244.31;5049566;27;105023;-60
2022/03/24 10:47:44;;;;;;;5.60;4.00;;;;;;;18.66;29.14;97247.34;5051823;27;101927;-60
2022/03/24 10:50:50;;;;;;;4.30;3.63;;;;;;;19.01;27.24;97242.47;5051741;27;102394;-59
2022/03/24 10:53:19;;;;;;;4.60;4.20;;;;;;;18.71;27.50;97240.06;5051207;27;102518;-59
2022/03/24 10:55:55;;;;;;;4.03;3.27;;;;;;;18.86;28.18;97234.53;5049555;27;102342;-59
2022/03/24 10:58:31;;;;;;;4.93;4.43;;;;;;;19.78;27.87;97241.47;5051675;27;102594;-59
2022/03/24 11:01:00;;;;;;;5.00;4.60;;;;;;;19.87;27.16;97231.63;5053916;27;101929;-59
2022/03/24 11:03:28;;;;;;;5.67;4.33;;;;;;;19.40;25.98;97232.44;5051322;27;102788;-59
2022/03/24 11:06:10;;;;;;;5.90;5.30;;;;;;;20.09;26.60;97226.53;5048870;27;103710;-59
2022/03/24 11:08:38;;;;;;;4.67;4.27;;;;;;;20.27;27.63;97225.75;5051015;27;101797;-60
2022/03/24 11:11:11;;;;;;;5.80;4.60;;;;;;;19.98;27.70;97219.63;5049427;27;105580;-59
2022/03/24 11:13:48;;;;;;;4.87;4.37;;;;;;;20.45;28.16;97220.38;5048818;27;105771;-59
2022/03/24 11:16:18;;;;;;;5.80;4.77;;;;;;;20.40;26.12;97211.50;5049536;27;102004;-60
2022/03/24 11:18:46;;;;;;;6.90;4.60;;;;;;;19.62;26.57;97218.44;5050973;27;102822;-60
2022/03/24 11:21:17;;;;;;;6.23;4.70;;;;;;;19.23;26.89;97215.09;5048823;27;104206;-60
2022/03/24 11:23:46;;;;;;;7.30;4.97;;;;;;;19.84;27.49;97205.22;5054296;27;101747;-60
2022/03/24 11:26:13;;;;;;;6.13;4.90;;;;;;;19.95;26.48;97206.72;5048800;27;105464;-60
2022/03/24 11:28:41;;;;;;;5.27;4.77;;;;;;;19.75;26.36;97204.25;5048615;27;101931;-60
2022/03/24 11:31:11;;;;;;;7.00;4.87;;;;;;;19.80;27.02;97202.31;5049344;27;105613;-60